This is the latest recevied weather packets stored in our database for station/object KG7DQI-13. If no packets are shown the sender has not sent any weather packets the latest 10 day(s).
| Time | Temp. | Humidity | Pressure | Rain* | Wind** | Luminosity | Snow |
|---|---|---|---|---|---|---|---|
| 1777479288 | 8.89° C | 63% | 921.1 hPa | 0 mm | - | 529 W/m² | - |
| 1777478366 | 8.89° C | 64% | 921.1 hPa | 0 mm | - | 483 W/m² | - |
| 1777477446 | 8.33° C | 65% | 921 hPa | 0 mm | - | 436 W/m² | - |
| 1777476516 | 8.33° C | 67% | 920.9 hPa | 0 mm | - | 390 W/m² | - |
| 1777475646 | 7.78° C | 71% | 920.9 hPa | 0 mm | - | 345 W/m² | - |
| 1777474786 | 6.11° C | 77% | 920.8 hPa | 0 mm | - | 297 W/m² | - |
| 1777473915 | 2.78° C | 86% | 920.9 hPa | 0 mm | - | 255 W/m² | - |
| 1777472983 | 0° C | 89% | 921 hPa | 0 mm | - | 188 W/m² | - |
| 1777472092 | -1.67° C | 89% | 920.8 hPa | 0 mm | - | 137 W/m² | - |
| 1777471214 | -3.33° C | 90% | 920.5 hPa | 0 mm | - | 111 W/m² | - |
| 1777470317 | -4.44° C | 89% | 920.2 hPa | 0 mm | - | 54 W/m² | - |
| 1777469385 | -4.44° C | 90% | 920.3 hPa | 0 mm | - | 14 W/m² | - |
| 1777468454 | -5° C | 89% | 920.2 hPa | 0 mm | - | 9 W/m² | - |
| 1777467551 | -5° C | 88% | 920.1 hPa | 0 mm | - | 0 W/m² | - |
| 1777466615 | -4.44° C | 87% | 920.1 hPa | 0 mm | - | 0 W/m² | - |
| 1777465681 | -4.44° C | 87% | 919.9 hPa | 0 mm | - | 0 W/m² | - |
| 1777464801 | -3.89° C | 88% | 919.9 hPa | 0 mm | - | 0 W/m² | - |
| 1777463867 | -3.89° C | 87% | 919.7 hPa | 0 mm | - | 0 W/m² | - |
| 1777462973 | -3.33° C | 89% | 919.7 hPa | 0 mm | - | 0 W/m² | - |
| 1777462065 | -2.78° C | 89% | 919.7 hPa | 0 mm | - | 0 W/m² | - |
| 1777461151 | -3.33° C | 87% | 919.8 hPa | 0 mm | - | 0 W/m² | - |
| 1777460241 | -2.78° C | 89% | 919.5 hPa | 0 mm | - | 0 W/m² | - |
| 1777459310 | -2.78° C | 85% | 919.5 hPa | 0 mm | - | 0 W/m² | - |
| 1777458373 | -2.22° C | 87% | 919.5 hPa | 0 mm | - | 0 W/m² | - |
| 1777457477 | -2.78° C | 85% | 919.4 hPa | 0 mm | - | 0 W/m² | - |
* Rain latest hour (hover to see other rain measurements)
** Current wind speed in m/s (hover to see current wind gust speed)